Wetterdaten: Woche 20.08.18 - 26.08.18 (KW34)
Datum Zeit Temp. Aussen Temp. o. S. +5cm Feuchte Auss Luftdruck Regen Sonnenschein Regendauer Solar Windben Empfang
20.08.2018 00:00 20,1 C 19,6 C 19,0 C 83 % 1016,3 hPa 0,0 l/m 0,00 h 0,00 h 0 W/m 1,4 km/h (1 Bft) 97,57 %
20.08.2018 01:00 20,3 C 19,7 C 19,3 C 83 % 1016,4 hPa 0,0 l/m 0,00 h 0,00 h 0 W/m 2,9 km/h (1 Bft) 96,72 %
20.08.2018 02:00 20,3 C 19,2 C 18,9 C 85 % 1016,6 hPa 0,0 l/m 0,00 h 0,00 h 0 W/m 1,7 km/h (1 Bft) 99,08 %
20.08.2018 03:00 19,9 C 18,8 C 18,6 C 86 % 1016,4 hPa 0,0 l/m 0,00 h 0,00 h 0 W/m 4,1 km/h (1 Bft) 96,79 %
20.08.2018 04:00 19,1 C 17,8 C 17,8 C 88 % 1016,3 hPa 0,0 l/m 0,00 h 0,00 h 0 W/m 1,7 km/h (1 Bft) 96,23 %
20.08.2018 05:00 18,7 C 17,9 C 17,8 C 89 % 1016,3 hPa 0,0 l/m 0,00 h 0,00 h 0 W/m 2,8 km/h (1 Bft) 99,43 %
20.08.2018 06:00 18,7 C 18,0 C 17,8 C 90 % 1016,3 hPa 0,0 l/m 0,00 h 0,00 h 6 W/m 3,0 km/h (1 Bft) 97,30 %
20.08.2018 07:00 18,8 C 18,3 C 17,8 C 91 % 1016,4 hPa 0,0 l/m 0,00 h 0,00 h 22 W/m 3,9 km/h (1 Bft) 95,45 %
20.08.2018 08:00 19,1 C 18,7 C 18,3 C 91 % 1016,7 hPa 0,0 l/m 0,00 h 0,00 h 39 W/m 4,7 km/h (1 Bft) 99,64 %
20.08.2018 09:00 19,4 C 18,7 C 18,2 C 92 % 1017,2 hPa 0,0 l/m 0,00 h 0,20 h 43 W/m 4,7 km/h (1 Bft) 97,59 %
20.08.2018 10:00 19,5 C 18,6 C 18,2 C 93 % 1017,6 hPa 0,0 l/m 0,00 h 0,03 h 78 W/m 3,5 km/h (1 Bft) 95,50 %
20.08.2018 11:00 19,7 C 19,6 C 18,7 C 94 % 1017,9 hPa 0,0 l/m 0,00 h 0,00 h 95 W/m 3,3 km/h (1 Bft) 99,43 %
20.08.2018 12:00 20,6 C 22,0 C 20,2 C 93 % 1017,8 hPa 0,0 l/m 0,17 h 0,00 h 297 W/m 5,0 km/h (1 Bft) 97,09 %
20.08.2018 13:00 22,4 C 23,9 C 21,5 C 86 % 1017,7 hPa 0,0 l/m 0,37 h 0,00 h 366 W/m 5,0 km/h (1 Bft) 96,37 %
20.08.2018 14:00 23,5 C 23,8 C 22,0 C 79 % 1017,6 hPa 0,0 l/m 0,07 h 0,00 h 217 W/m 6,0 km/h (2 Bft) 98,44 %
20.08.2018 15:00 22,5 C 21,1 C 20,5 C 83 % 1017,7 hPa 0,0 l/m 0,00 h 0,23 h 103 W/m 6,5 km/h (2 Bft) 98,22 %
20.08.2018 16:00 21,7 C 21,9 C 20,8 C 83 % 1017,7 hPa 0,0 l/m 0,00 h 0,00 h 141 W/m 4,7 km/h (1 Bft) 96,86 %
20.08.2018 17:00 22,1 C 22,1 C 21,1 C 80 % 1017,5 hPa 0,0 l/m 0,00 h 0,00 h 91 W/m 5,3 km/h (1 Bft) 96,37 %
20.08.2018 18:00 22,1 C 21,8 C 20,7 C 78 % 1017,5 hPa 0,0 l/m 0,00 h 0,00 h 66 W/m 4,0 km/h (1 Bft) 99,50 %
20.08.2018 19:00 22,0 C 21,4 C 20,6 C 79 % 1017,4 hPa 0,0 l/m 0,00 h 0,00 h 37 W/m 0,0 km/h (0 Bft) 97,51 %
20.08.2018 20:00 21,7 C 20,6 C 20,0 C 80 % 1017,7 hPa 0,0 l/m 0,00 h 0,00 h 9 W/m 0,0 km/h (0 Bft) 95,52 %
20.08.2018 21:00 21,2 C 19,9 C 19,5 C 82 % 1018,0 hPa 0,0 l/m 0,00 h 0,00 h 0 W/m 0,0 km/h (0 Bft) 99,57 %
20.08.2018 22:00 20,7 C 19,4 C 19,2 C 83 % 1018,1 hPa 0,0 l/m 0,00 h 0,00 h 0 W/m 0,0 km/h (0 Bft) 97,17 %
20.08.2018 23:00 20,3 C 19,1 C 18,9 C 85 % 1018,4 hPa 0,0 l/m 0,00 h 0,00 h 0 W/m 0,0 km/h (0 Bft) 96,80 %
21.08.2018 00:00 19,9 C 18,7 C 18,3 C 86 % 1018,5 hPa 0,0 l/m 0,00 h 0,00 h 0 W/m 0,0 km/h (0 Bft) 98,67 %
21.08.2018 01:00 19,4 C 18,7 C 18,3 C 87 % 1018,6 hPa 0,0 l/m 0,00 h 0,00 h 0 W/m 0,0 km/h (0 Bft) 96,23 %
21.08.2018 02:00 19,2 C 18,4 C 17,9 C 87 % 1018,5 hPa 0,0 l/m 0,00 h 0,00 h 0 W/m 0,0 km/h (0 Bft) 98,93 %
21.08.2018 03:00 19,1 C 18,1 C 17,8 C 88 % 1018,6 hPa 0,0 l/m 0,00 h 0,00 h 0 W/m 0,0 km/h (0 Bft) 97,22 %
21.08.2018 04:00 18,8 C 17,8 C 17,7 C 89 % 1018,4 hPa 0,0 l/m 0,00 h 0,00 h 0 W/m 0,0 km/h (0 Bft) 95,50 %
21.08.2018 05:00 18,6 C 17,8 C 17,8 C 90 % 1018,2 hPa 0,0 l/m 0,00 h 0,00 h 0 W/m 0,0 km/h (0 Bft) 99,16 %
21.08.2018 06:00 18,5 C 17,8 C 17,5 C 90 % 1018,4 hPa 0,0 l/m 0,00 h 0,00 h 7 W/m 0,0 km/h (0 Bft) 98,15 %
21.08.2018 07:00 18,4 C 18,2 C 17,8 C 91 % 1018,7 hPa 0,0 l/m 0,00 h 0,00 h 39 W/m 0,0 km/h (0 Bft) 95,09 %
21.08.2018 08:00 18,9 C 19,9 C 18,6 C 92 % 1018,8 hPa 0,0 l/m 0,10 h 0,00 h 130 W/m 1,7 km/h (1 Bft) 99,93 %
21.08.2018 09:00 20,1 C 22,2 C 19,8 C 89 % 1019,0 hPa 0,0 l/m 0,10 h 0,00 h 207 W/m 4,0 km/h (1 Bft) 97,86 %
21.08.2018 10:00 21,9 C 24,3 C 20,8 C 81 % 1019,1 hPa 0,0 l/m 0,60 h 0,00 h 316 W/m 4,0 km/h (1 Bft) 95,58 %
21.08.2018 11:00 23,9 C 28,8 C 21,8 C 73 % 1018,9 hPa 0,0 l/m 0,60 h 0,00 h 424 W/m 4,8 km/h (1 Bft) 99,36 %
21.08.2018 12:00 25,0 C 26,6 C 22,4 C 67 % 1018,7 hPa 0,0 l/m 0,20 h 0,00 h 337 W/m 6,4 km/h (2 Bft) 98,08 %
21.08.2018 13:00 25,0 C 26,3 C 22,9 C 68 % 1018,3 hPa 0,0 l/m 0,37 h 0,00 h 330 W/m 5,3 km/h (1 Bft) 95,87 %
21.08.2018 14:00 25,5 C 27,3 C 23,9 C 67 % 1017,9 hPa 0,0 l/m 1,00 h 0,00 h 707 W/m 5,9 km/h (2 Bft) 97,38 %
21.08.2018 15:00 26,8 C 27,6 C 24,8 C 61 % 1017,4 hPa 0,0 l/m 1,00 h 0,00 h 673 W/m 7,4 km/h (2 Bft) 99,29 %
21.08.2018 16:00 27,2 C 27,4 C 24,5 C 58 % 1017,1 hPa 0,0 l/m 0,70 h 0,00 h 379 W/m 5,3 km/h (1 Bft) 97,72 %
21.08.2018 17:00 27,2 C 27,9 C 24,8 C 57 % 1016,7 hPa 0,0 l/m 0,97 h 0,00 h 348 W/m 5,4 km/h (1 Bft) 94,94 %
21.08.2018 18:00 27,2 C 26,8 C 24,7 C 57 % 1016,3 hPa 0,0 l/m 0,43 h 0,00 h 190 W/m 4,8 km/h (1 Bft) 99,15 %
21.08.2018 19:00 26,4 C 25,2 C 23,9 C 59 % 1016,1 hPa 0,0 l/m 0,00 h 0,00 h 68 W/m 4,3 km/h (1 Bft) 98,08 %
21.08.2018 20:00 25,5 C 23,8 C 22,7 C 62 % 1016,1 hPa 0,0 l/m 0,37 h 0,00 h 21 W/m 2,1 km/h (1 Bft) 96,45 %
21.08.2018 21:00 23,9 C 20,7 C 19,4 C 69 % 1016,3 hPa 0,0 l/m 0,00 h 0,00 h 0 W/m 0,2 km/h (0 Bft) 98,44 %
21.08.2018 22:00 21,9 C 17,5 C 17,2 C 77 % 1016,3 hPa 0,0 l/m 0,00 h 0,00 h 0 W/m 0,3 km/h (0 Bft) 98,15 %
21.08.2018 23:00 20,4 C 17,2 C 16,7 C 82 % 1016,3 hPa 0,0 l/m 0,00 h 0,00 h 0 W/m 0,0 km/h (0 Bft) 95,81 %
22.08.2018 00:00 19,4 C 17,2 C 17,0 C 86 % 1016,4 hPa 0,0 l/m 0,00 h 0,00 h 0 W/m 0,2 km/h (0 Bft) 98,78 %
22.08.2018 01:00 19,0 C 17,2 C 16,8 C 87 % 1016,2 hPa 0,0 l/m 0,00 h 0,00 h 0 W/m 0,0 km/h (0 Bft) 97,66 %
22.08.2018 02:00 18,6 C 17,2 C 16,2 C 87 % 1015,9 hPa 0,0 l/m 0,00 h 0,00 h 0 W/m 0,0 km/h (0 Bft) 96,86 %
22.08.2018 03:00 18,1 C 17,2 C 16,4 C 88 % 1015,7 hPa 0,0 l/m 0,00 h 0,00 h 0 W/m 0,1 km/h (0 Bft) 98,29 %
22.08.2018 04:00 17,7 C 16,5 C 16,4 C 88 % 1015,4 hPa 0,0 l/m 0,00 h 0,00 h 0 W/m 0,1 km/h (0 Bft) 96,82 %
22.08.2018 05:00 17,1 C 15,8 C 15,9 C 89 % 1015,3 hPa 0,0 l/m 0,00 h 0,00 h 0 W/m 0,1 km/h (0 Bft) 98,91 %
22.08.2018 06:00 16,6 C 15,6 C 15,7 C 90 % 1015,2 hPa 0,0 l/m 0,00 h 0,00 h 9 W/m 0,0 km/h (0 Bft) 97,50 %
22.08.2018 07:00 16,4 C 16,0 C 15,7 C 91 % 1015,3 hPa 0,0 l/m 0,00 h 0,00 h 32 W/m 0,0 km/h (0 Bft) 95,10 %
22.08.2018 08:00 17,1 C 18,9 C 17,0 C 94 % 1015,3 hPa 0,0 l/m 0,00 h 0,00 h 57 W/m 3,3 km/h (1 Bft) 99,64 %
22.08.2018 09:00 19,9 C 23,2 C 19,5 C 84 % 1015,2 hPa 0,0 l/m 0,83 h 0,00 h 280 W/m 8,0 km/h (2 Bft) 97,08 %
22.08.2018 10:00 23,5 C 28,2 C 21,2 C 73 % 1015,3 hPa 0,0 l/m 1,00 h 0,00 h 455 W/m 5,1 km/h (1 Bft) 95,87 %
22.08.2018 11:00 26,9 C 34,1 C 22,6 C 65 % 1015,0 hPa 0,0 l/m 1,00 h 0,00 h 558 W/m 4,7 km/h (1 Bft) 99,86 %
22.08.2018 12:00 29,3 C 36,5 C 24,2 C 59 % 1014,7 hPa 0,0 l/m 0,43 h 0,00 h 360 W/m 5,7 km/h (1 Bft) 97,22 %
22.08.2018 13:00 29,4 C 30,0 C 25,3 C 56 % 1014,4 hPa 0,0 l/m 0,70 h 0,00 h 546 W/m 6,2 km/h (2 Bft) 96,66 %
22.08.2018 14:00 29,0 C 29,1 C 26,0 C 56 % 1014,1 hPa 0,0 l/m 0,93 h 0,00 h 680 W/m 6,0 km/h (2 Bft) 98,08 %
22.08.2018 15:00 28,9 C 29,1 C 26,2 C 58 % 1013,8 hPa 0,0 l/m 0,83 h 0,00 h 577 W/m 9,0 km/h (2 Bft) 98,58 %
22.08.2018 16:00 29,1 C 29,6 C 26,0 C 58 % 1013,6 hPa 0,0 l/m 0,93 h 0,00 h 502 W/m 8,9 km/h (2 Bft) 96,45 %
22.08.2018 17:00 28,2 C 25,8 C 21,9 C 61 % 1013,4 hPa 0,0 l/m 0,97 h 0,00 h 402 W/m 7,3 km/h (2 Bft) 96,80 %
22.08.2018 18:00 27,3 C 23,4 C 20,5 C 63 % 1013,0 hPa 0,0 l/m 0,67 h 0,00 h 209 W/m 7,9 km/h (2 Bft) 99,51 %
22.08.2018 19:00 25,9 C 21,1 C 19,1 C 66 % 1012,9 hPa 0,0 l/m 0,00 h 0,00 h 62 W/m 6,8 km/h (2 Bft) 96,85 %
22.08.2018 20:00 24,5 C 20,8 C 18,3 C 72 % 1013,2 hPa 0,0 l/m 0,13 h 0,00 h 19 W/m 4,4 km/h (1 Bft) 95,74 %
22.08.2018 21:00 22,8 C 18,8 C 17,8 C 77 % 1013,6 hPa 0,0 l/m 0,00 h 0,00 h 0 W/m 4,8 km/h (1 Bft) 99,64 %
22.08.2018 22:00 21,5 C 18,3 C 18,0 C 82 % 1013,7 hPa 0,0 l/m 0,00 h 0,00 h 0 W/m 2,9 km/h (1 Bft) 96,53 %
22.08.2018 23:00 20,5 C 17,9 C 18,1 C 85 % 1013,9 hPa 0,0 l/m 0,00 h 0,00 h 0 W/m 1,1 km/h (1 Bft) 96,86 %
23.08.2018 00:00 19,6 C 17,4 C 17,6 C 87 % 1013,9 hPa 0,0 l/m 0,00 h 0,00 h 0 W/m 0,0 km/h (0 Bft) 98,55 %
23.08.2018 01:00 18,7 C 16,8 C 17,0 C 89 % 1013,9 hPa 0,0 l/m 0,00 h 0,00 h 0 W/m 0,0 km/h (0 Bft) 96,15 %
23.08.2018 02:00 18,1 C 16,6 C 16,6 C 90 % 1013,5 hPa 0,0 l/m 0,00 h 0,00 h 0 W/m 0,0 km/h (0 Bft) 99,36 %
23.08.2018 03:00 17,5 C 16,0 C 16,1 C 91 % 1013,2 hPa 0,0 l/m 0,00 h 0,00 h 0 W/m 0,0 km/h (0 Bft) 95,98 %
23.08.2018 04:00 16,9 C 15,6 C 15,7 C 92 % 1012,7 hPa 0,0 l/m 0,00 h 0,00 h 0 W/m 0,0 km/h (0 Bft) 96,88 %
23.08.2018 05:00 16,4 C 15,5 C 15,6 C 92 % 1012,3 hPa 0,0 l/m 0,00 h 0,00 h 0 W/m 0,0 km/h (0 Bft) 99,36 %
23.08.2018 06:00 16,1 C 14,9 C 15,1 C 93 % 1012,0 hPa 0,0 l/m 0,00 h 0,00 h 8 W/m 0,0 km/h (0 Bft) 98,01 %
23.08.2018 07:00 15,9 C 15,6 C 15,5 C 94 % 1011,9 hPa 0,0 l/m 0,00 h 0,00 h 36 W/m 0,0 km/h (0 Bft) 95,53 %
23.08.2018 08:00 16,8 C 17,9 C 17,1 C 96 % 1011,9 hPa 0,0 l/m 0,00 h 0,00 h 72 W/m 1,7 km/h (1 Bft) 98,00 %
23.08.2018 09:00 18,7 C 22,1 C 19,0 C 96 % 1011,6 hPa 0,0 l/m 0,80 h 0,00 h 275 W/m 5,5 km/h (1 Bft) 97,94 %
23.08.2018 10:00 22,2 C 26,8 C 20,8 C 85 % 1011,6 hPa 0,0 l/m 1,00 h 0,00 h 456 W/m 6,8 km/h (2 Bft) 96,95 %
23.08.2018 11:00 25,5 C 30,8 C 22,5 C 71 % 1011,3 hPa 0,0 l/m 0,90 h 0,00 h 600 W/m 7,9 km/h (2 Bft) 98,24 %
23.08.2018 12:00 26,4 C 29,0 C 23,2 C 67 % 1011,0 hPa 0,0 l/m 0,17 h 0,00 h 317 W/m 8,8 km/h (2 Bft) 96,35 %
23.08.2018 13:00 26,2 C 26,8 C 23,7 C 68 % 1010,8 hPa 0,0 l/m 0,67 h 0,00 h 527 W/m 9,3 km/h (2 Bft) 98,49 %
23.08.2018 14:00 26,0 C 26,1 C 23,9 C 68 % 1010,6 hPa 0,0 l/m 1,00 h 0,00 h 705 W/m 9,0 km/h (2 Bft) 97,98 %
23.08.2018 15:00 25,6 C 25,5 C 23,8 C 68 % 1010,1 hPa 0,0 l/m 0,87 h 0,00 h 589 W/m 10,2 km/h (2 Bft) 96,24 %
23.08.2018 16:00 25,5 C 26,3 C 23,7 C 66 % 1009,6 hPa 0,0 l/m 0,97 h 0,00 h 534 W/m 9,1 km/h (2 Bft) 98,61 %
23.08.2018 17:00 25,1 C 25,0 C 23,1 C 67 % 1009,3 hPa 0,0 l/m 1,00 h 0,00 h 431 W/m 10,8 km/h (2 Bft) 96,80 %
23.08.2018 18:00 24,3 C 23,7 C 22,6 C 68 % 1009,1 hPa 0,0 l/m 0,60 h 0,00 h 236 W/m 9,7 km/h (2 Bft) 97,58 %
23.08.2018 19:00 23,4 C 22,4 C 21,8 C 69 % 1008,8 hPa 0,0 l/m 0,00 h 0,00 h 47 W/m 6,9 km/h (2 Bft) 98,49 %
23.08.2018 20:00 22,4 C 20,9 C 20,8 C 72 % 1008,9 hPa 0,0 l/m 0,00 h 0,00 h 13 W/m 3,9 km/h (1 Bft) 95,82 %
23.08.2018 21:00 21,5 C 20,1 C 20,1 C 74 % 1009,0 hPa 0,0 l/m 0,00 h 0,00 h 0 W/m 3,0 km/h (1 Bft) 98,00 %
23.08.2018 22:00 20,8 C 19,2 C 19,1 C 76 % 1008,9 hPa 0,0 l/m 0,00 h 0,00 h 0 W/m 1,2 km/h (1 Bft) 98,29 %
23.08.2018 23:00 20,2 C 19,3 C 19,4 C 79 % 1008,9 hPa 0,0 l/m 0,00 h 0,00 h 0 W/m 3,8 km/h (1 Bft) 97,59 %
24.08.2018 00:00 20,4 C 19,8 C 19,4 C 79 % 1008,7 hPa 0,0 l/m 0,00 h 0,03 h 0 W/m 5,4 km/h (1 Bft) 96,27 %
24.08.2018 01:00 20,2 C 17,8 C 18,3 C 84 % 1008,7 hPa 0,2 l/m 0,00 h 0,60 h 0 W/m 5,3 km/h (1 Bft) 97,86 %
24.08.2018 02:00 18,6 C 16,2 C 16,4 C 90 % 1008,6 hPa 0,0 l/m 0,00 h 0,37 h 0 W/m 3,5 km/h (1 Bft) 98,94 %
24.08.2018 03:00 17,5 C 15,6 C 16,6 C 92 % 1008,4 hPa 0,2 l/m 0,00 h 0,00 h 0 W/m 1,5 km/h (1 Bft) 96,07 %
24.08.2018 04:00 16,8 C 15,0 C 16,1 C 93 % 1008,3 hPa 0,0 l/m 0,00 h 0,00 h 0 W/m 1,6 km/h (1 Bft) 97,10 %
24.08.2018 05:00 16,4 C 15,1 C 16,0 C 94 % 1008,3 hPa 0,0 l/m 0,00 h 0,00 h 0 W/m 5,6 km/h (1 Bft) 98,08 %
24.08.2018 06:00 16,1 C 15,4 C 15,6 C 94 % 1008,5 hPa 0,0 l/m 0,00 h 0,00 h 8 W/m 4,8 km/h (1 Bft) 98,23 %
24.08.2018 07:00 16,1 C 15,6 C 15,6 C 94 % 1008,7 hPa 0,0 l/m 0,00 h 0,00 h 27 W/m 4,5 km/h (1 Bft) 96,82 %
24.08.2018 08:00 16,3 C 16,1 C 15,7 C 93 % 1009,1 hPa 0,0 l/m 0,00 h 0,00 h 41 W/m 6,8 km/h (2 Bft) 96,47 %
24.08.2018 09:00 16,5 C 15,5 C 15,4 C 92 % 1009,6 hPa 0,0 l/m 0,00 h 0,53 h 51 W/m 5,9 km/h (2 Bft) 98,76 %
24.08.2018 10:00 15,9 C 15,3 C 14,9 C 90 % 1010,3 hPa 0,0 l/m 0,03 h 0,00 h 109 W/m 10,5 km/h (2 Bft) 97,89 %
24.08.2018 11:00 18,0 C 23,0 C 17,0 C 76 % 1010,8 hPa 0,0 l/m 0,70 h 0,00 h 475 W/m 12,6 km/h (3 Bft) 95,92 %
24.08.2018 12:00 20,8 C 25,7 C 18,4 C 60 % 1010,9 hPa 0,0 l/m 0,47 h 0,00 h 404 W/m 10,0 km/h (2 Bft) 97,02 %
24.08.2018 13:00 21,2 C 22,0 C 19,2 C 57 % 1010,8 hPa 0,0 l/m 0,43 h 0,00 h 469 W/m 11,2 km/h (2 Bft) 98,14 %
24.08.2018 14:00 21,3 C 21,6 C 19,8 C 54 % 1010,8 hPa 0,0 l/m 0,90 h 0,00 h 646 W/m 11,9 km/h (2 Bft) 98,02 %
24.08.2018 15:00 21,1 C 21,3 C 19,8 C 51 % 1010,6 hPa 0,0 l/m 0,90 h 0,00 h 466 W/m 11,5 km/h (2 Bft) 95,79 %
24.08.2018 16:00 20,5 C 20,4 C 19,1 C 53 % 1010,3 hPa 0,0 l/m 0,50 h 0,00 h 282 W/m 11,2 km/h (2 Bft) 98,65 %
24.08.2018 17:00 19,5 C 19,0 C 18,4 C 55 % 1010,2 hPa 0,0 l/m 0,07 h 0,00 h 170 W/m 11,5 km/h (2 Bft) 99,00 %
24.08.2018 18:00 18,8 C 18,2 C 17,8 C 58 % 1010,2 hPa 0,0 l/m 0,00 h 0,00 h 110 W/m 8,5 km/h (2 Bft) 94,68 %
24.08.2018 19:00 18,3 C 17,4 C 17,1 C 59 % 1010,0 hPa 0,0 l/m 0,00 h 0,00 h 57 W/m 7,3 km/h (2 Bft) 98,78 %
24.08.2018 20:00 17,8 C 16,6 C 16,5 C 63 % 1010,0 hPa 0,0 l/m 0,00 h 0,00 h 15 W/m 3,2 km/h (1 Bft) 99,44 %
24.08.2018 21:00 17,0 C 15,6 C 15,6 C 67 % 1010,1 hPa 0,0 l/m 0,00 h 0,00 h 0 W/m 1,1 km/h (1 Bft) 94,43 %
24.08.2018 22:00 16,4 C 15,5 C 15,1 C 67 % 1009,7 hPa 0,0 l/m 0,00 h 0,00 h 0 W/m 3,1 km/h (1 Bft) 98,36 %
24.08.2018 23:00 16,0 C 15,1 C 15,3 C 67 % 1009,3 hPa 0,0 l/m 0,00 h 0,00 h 0 W/m 3,5 km/h (1 Bft) 99,13 %
25.08.2018 00:00 15,6 C 15,0 C 15,0 C 66 % 1009,3 hPa 0,0 l/m 0,00 h 0,00 h 0 W/m 5,8 km/h (2 Bft) 95,85 %
25.08.2018 01:00 15,6 C 14,8 C 15,0 C 66 % 1008,8 hPa 0,0 l/m 0,00 h 0,00 h 0 W/m 6,6 km/h (2 Bft) 98,04 %
25.08.2018 02:00 15,3 C 14,4 C 14,9 C 68 % 1008,0 hPa 0,0 l/m 0,00 h 0,00 h 0 W/m 7,3 km/h (2 Bft) 98,21 %
25.08.2018 03:00 15,0 C 14,4 C 14,4 C 69 % 1007,2 hPa 0,0 l/m 0,00 h 0,03 h 0 W/m 7,0 km/h (2 Bft) 95,90 %
25.08.2018 04:00 14,6 C 12,0 C 12,6 C 79 % 1006,8 hPa 0,2 l/m 0,00 h 0,77 h 0 W/m 5,1 km/h (1 Bft) 99,80 %
25.08.2018 05:00 13,3 C 11,1 C 11,7 C 88 % 1006,5 hPa 0,4 l/m 0,00 h 0,60 h 0 W/m 4,4 km/h (1 Bft) 96,70 %
25.08.2018 06:00 12,5 C 11,0 C 11,2 C 92 % 1006,4 hPa 0,6 l/m 0,00 h 0,43 h 7 W/m 6,5 km/h (2 Bft) 95,42 %
25.08.2018 07:00 11,9 C 10,6 C 11,1 C 93 % 1006,8 hPa 0,0 l/m 0,00 h 0,00 h 29 W/m 7,1 km/h (2 Bft) 99,65 %
25.08.2018 08:00 12,0 C 11,3 C 11,8 C 94 % 1007,3 hPa 0,0 l/m 0,17 h 0,00 h 105 W/m 8,5 km/h (2 Bft) 97,50 %
25.08.2018 09:00 12,7 C 12,6 C 12,4 C 89 % 1007,7 hPa 0,0 l/m 0,50 h 0,00 h 249 W/m 11,2 km/h (2 Bft) 96,60 %
25.08.2018 10:00 14,6 C 17,9 C 13,6 C 79 % 1008,2 hPa 0,0 l/m 0,80 h 0,00 h 458 W/m 11,8 km/h (2 Bft) 98,80 %
25.08.2018 11:00 17,1 C 21,6 C 14,9 C 69 % 1008,8 hPa 0,0 l/m 0,97 h 0,00 h 607 W/m 13,1 km/h (3 Bft) 97,65 %
25.08.2018 12:00 17,9 C 20,8 C 15,6 C 65 % 1009,1 hPa 0,0 l/m 0,37 h 0,00 h 347 W/m 12,2 km/h (3 Bft) 96,01 %
25.08.2018 13:00 17,8 C 18,4 C 16,1 C 66 % 1009,3 hPa 0,0 l/m 0,43 h 0,03 h 404 W/m 11,7 km/h (2 Bft) 97,94 %
25.08.2018 14:00 17,9 C 18,6 C 16,8 C 67 % 1009,5 hPa 0,0 l/m 0,63 h 0,00 h 660 W/m 10,8 km/h (2 Bft) 97,86 %
25.08.2018 15:00 17,9 C 17,2 C 16,1 C 65 % 1009,9 hPa 0,0 l/m 0,43 h 0,10 h 461 W/m 12,9 km/h (3 Bft) 97,73 %
25.08.2018 16:00 16,6 C 15,9 C 15,1 C 72 % 1010,5 hPa 0,0 l/m 0,30 h 0,30 h 223 W/m 11,3 km/h (2 Bft) 95,51 %
25.08.2018 17:00 16,4 C 17,1 C 15,6 C 71 % 1011,0 hPa 0,0 l/m 0,77 h 0,00 h 451 W/m 11,9 km/h (2 Bft) 99,00 %
25.08.2018 18:00 16,8 C 16,8 C 15,8 C 66 % 1011,4 hPa 0,0 l/m 0,60 h 0,00 h 260 W/m 10,8 km/h (2 Bft) 97,99 %
25.08.2018 19:00 16,1 C 15,0 C 14,5 C 66 % 1011,9 hPa 0,0 l/m 0,23 h 0,00 h 61 W/m 9,9 km/h (2 Bft) 96,04 %
25.08.2018 20:00 14,8 C 13,3 C 13,4 C 69 % 1012,6 hPa 0,0 l/m 0,17 h 0,00 h 20 W/m 3,2 km/h (1 Bft) 99,86 %
25.08.2018 21:00 13,6 C 11,9 C 12,4 C 75 % 1013,2 hPa 0,0 l/m 0,00 h 0,00 h 0 W/m 2,5 km/h (1 Bft) 97,37 %
25.08.2018 22:00 12,6 C 10,8 C 11,5 C 80 % 1013,7 hPa 0,0 l/m 0,00 h 0,00 h 0 W/m 1,6 km/h (1 Bft) 96,10 %
25.08.2018 23:00 11,8 C 10,5 C 11,0 C 83 % 1013,9 hPa 0,0 l/m 0,00 h 0,00 h 0 W/m 0,8 km/h (0 Bft) 97,30 %
26.08.2018 00:00 11,4 C 10,4 C 10,9 C 86 % 1014,0 hPa 0,0 l/m 0,00 h 0,00 h 0 W/m 1,7 km/h (1 Bft) 98,97 %
26.08.2018 01:00 11,0 C 9,6 C 10,4 C 87 % 1014,2 hPa 0,0 l/m 0,00 h 0,00 h 0 W/m 0,7 km/h (0 Bft) 97,36 %
26.08.2018 02:00 10,4 C 9,3 C 9,9 C 89 % 1014,2 hPa 0,0 l/m 0,00 h 0,00 h 0 W/m 0,5 km/h (0 Bft) 97,57 %
26.08.2018 03:00 9,9 C 8,3 C 9,1 C 90 % 1014,4 hPa 0,0 l/m 0,00 h 0,00 h 0 W/m 0,2 km/h (0 Bft) 98,72 %
26.08.2018 04:00 9,2 C 7,9 C 8,4 C 90 % 1014,6 hPa 0,0 l/m 0,00 h 0,00 h 0 W/m 0,2 km/h (0 Bft) 95,43 %
26.08.2018 05:00 8,8 C 7,5 C 8,2 C 91 % 1014,6 hPa 0,0 l/m 0,00 h 0,00 h 0 W/m 0,0 km/h (0 Bft) 97,08 %
26.08.2018 06:00 8,5 C 7,8 C 8,3 C 92 % 1014,9 hPa 0,0 l/m 0,00 h 0,00 h 7 W/m 0,6 km/h (0 Bft) 98,89 %
26.08.2018 07:00 8,7 C 8,7 C 8,6 C 94 % 1015,4 hPa 0,0 l/m 0,00 h 0,00 h 28 W/m 1,9 km/h (1 Bft) 98,35 %
26.08.2018 08:00 9,5 C 10,2 C 9,6 C 95 % 1015,7 hPa 0,0 l/m 0,00 h 0,00 h 51 W/m 4,2 km/h (1 Bft) 96,57 %
26.08.2018 09:00 11,1 C 15,0 C 11,5 C 94 % 1015,6 hPa 0,0 l/m 0,73 h 0,00 h 253 W/m 5,7 km/h (1 Bft) 96,05 %
26.08.2018 10:00 14,6 C 22,0 C 13,4 C 82 % 1015,7 hPa 0,0 l/m 1,00 h 0,00 h 464 W/m 6,1 km/h (2 Bft) 97,65 %
26.08.2018 11:00 18,6 C 24,7 C 15,4 C 65 % 1015,4 hPa 0,0 l/m 0,93 h 0,00 h 541 W/m 8,0 km/h (2 Bft) 98,19 %
26.08.2018 12:00 19,7 C 23,2 C 16,5 C 60 % 1014,7 hPa 0,0 l/m 0,27 h 0,00 h 300 W/m 7,6 km/h (2 Bft) 98,23 %
26.08.2018 13:00 20,4 C 21,3 C 18,2 C 56 % 1014,2 hPa 0,0 l/m 0,50 h 0,00 h 498 W/m 9,2 km/h (2 Bft) 98,44 %
26.08.2018 14:00 20,3 C 20,6 C 18,6 C 55 % 1013,7 hPa 0,0 l/m 0,67 h 0,00 h 492 W/m 10,5 km/h (2 Bft) 95,74 %
26.08.2018 15:00 20,5 C 20,6 C 18,9 C 53 % 1012,8 hPa 0,0 l/m 0,53 h 0,00 h 367 W/m 9,6 km/h (2 Bft) 97,50 %
26.08.2018 16:00 20,9 C 21,0 C 19,3 C 50 % 1012,1 hPa 0,0 l/m 0,33 h 0,00 h 270 W/m 9,6 km/h (2 Bft) 99,43 %
26.08.2018 17:00 20,4 C 19,8 C 18,9 C 51 % 1011,7 hPa 0,0 l/m 0,03 h 0,00 h 165 W/m 8,1 km/h (2 Bft) 95,32 %
26.08.2018 18:00 19,9 C 19,5 C 18,7 C 47 % 1011,1 hPa 0,0 l/m 0,33 h 0,00 h 134 W/m 9,2 km/h (2 Bft) 97,67 %
26.08.2018 19:00 19,4 C 18,6 C 18,1 C 47 % 1010,5 hPa 0,0 l/m 0,10 h 0,00 h 49 W/m 6,9 km/h (2 Bft) 99,71 %
26.08.2018 20:00 18,8 C 17,8 C 17,2 C 50 % 1010,0 hPa 0,0 l/m 0,00 h 0,00 h 12 W/m 4,4 km/h (1 Bft) 95,46 %
26.08.2018 21:00 18,2 C 17,2 C 16,7 C 54 % 1010,0 hPa 0,0 l/m 0,00 h 0,00 h 0 W/m 5,0 km/h (1 Bft) 96,71 %
26.08.2018 22:00 18,0 C 17,4 C 16,9 C 55 % 1009,7 hPa 0,0 l/m 0,00 h 0,00 h 0 W/m 9,3 km/h (2 Bft) 99,36 %
26.08.2018 23:00 17,8 C 16,1 C 16,1 C 59 % 1009,2 hPa 0,0 l/m 0,00 h 0,50 h 0 W/m 12,7 km/h (3 Bft) 95,79 %
Min-Datum _ 26.08.18 26.08.18 26.08.18 26.08.18 25.08.18 - - - - 20.08.18 26.08.18
_ Min-Zeit 06:16 05:26 05:46 18:26 05:40 - - - - 00:00 20:26
Minimum _ 8,4 C 7,2 C 7,8 C 45 % 1006,3 hPa - - - - 0,0 km/h (0 Bft) 87,50 %
Max-Datum _ 22.08.18 22.08.18 22.08.18 23.08.18 21.08.18 25.08.18 21.08.18 20.08.18 25.08.18 24.08.18 20.08.18
_ Max-Zeit 12:48 12:32 14:32 08:48 10:02 06:00 18:08 09:44 14:32 15:12 00:00
Maximum _ 29,8 C 38,3 C 26,7 C 97 % 1019,3 hPa 0,6 l/m 0,07 h 0,03 h 1026 W/m 27,0 km/h
W (4 Bft)
100,00 %
Durchschnitt _ 19,4 C 19,2 C 17,8 C 77 % 1013,3 hPa #1,6 l/m #39:14 h #4:48 h 254 W/m 4,9 km/h (1 Bft) 97,51 %
© 2018 W. Hausmann